createdAt,value
2018-07-25T00:00:16.115Z,6.30
2018-07-25T00:01:19.992Z,6.43
2018-07-25T00:02:23.410Z,6.50
2018-07-25T00:03:27.016Z,6.40
2018-07-25T00:04:30.469Z,5.67
2018-07-25T00:05:33.866Z,6.03
2018-07-25T00:06:37.280Z,7.07
2018-07-25T00:07:40.712Z,6.93
2018-07-25T00:08:44.120Z,6.57
2018-07-25T00:09:47.535Z,5.90
2018-07-25T00:10:54.540Z,6.17
2018-07-25T00:11:57.968Z,6.70
2018-07-25T00:13:01.368Z,6.57
2018-07-25T00:14:04.859Z,6.10
2018-07-25T00:15:08.292Z,5.83
2018-07-25T00:16:11.688Z,5.80
2018-07-25T00:17:15.103Z,6.50
2018-07-25T00:18:18.519Z,6.87
2018-07-25T00:19:21.924Z,5.93
2018-07-25T00:20:25.356Z,5.87
2018-07-25T00:21:28.767Z,6.17
2018-07-25T00:22:32.193Z,5.87
2018-07-25T00:23:35.616Z,5.97
2018-07-25T00:24:39.491Z,6.20
2018-07-25T00:25:42.877Z,5.40
2018-07-25T00:26:46.277Z,6.00
2018-07-25T00:27:49.666Z,5.93
2018-07-25T00:28:53.053Z,5.47
2018-07-25T00:29:56.460Z,5.70
2018-07-25T00:30:59.865Z,6.03
2018-07-25T00:32:03.287Z,5.20
2018-07-25T00:33:06.724Z,5.57
2018-07-25T00:34:10.108Z,6.17
2018-07-25T00:35:13.512Z,5.97
2018-07-25T00:36:17.008Z,5.57
2018-07-25T00:37:20.391Z,6.50
2018-07-25T00:38:23.782Z,6.53
2018-07-25T00:39:27.142Z,6.43
2018-07-25T00:40:30.567Z,5.80
2018-07-25T00:41:33.981Z,5.50
2018-07-25T00:42:37.399Z,6.63
2018-07-25T00:43:40.834Z,5.90
2018-07-25T00:44:44.248Z,6.10
2018-07-25T00:45:47.629Z,5.90
2018-07-25T00:46:51.020Z,5.77
2018-07-25T00:47:54.402Z,6.70
2018-07-25T00:48:57.796Z,6.07
2018-07-25T00:50:01.173Z,5.73
2018-07-25T00:51:04.578Z,6.10
2018-07-25T00:52:07.978Z,6.70
2018-07-25T00:53:11.390Z,5.20
2018-07-25T00:54:14.808Z,5.77
2018-07-25T00:55:18.187Z,6.20
2018-07-25T00:56:21.644Z,6.00
2018-07-25T00:57:25.036Z,5.70
2018-07-25T00:58:28.420Z,5.70
2018-07-25T00:59:31.829Z,6.37
2018-07-25T01:00:35.222Z,5.77
2018-07-25T01:01:38.641Z,5.60
2018-07-25T01:02:42.135Z,6.40
2018-07-25T01:03:45.542Z,5.60
2018-07-25T01:04:48.928Z,6.10
2018-07-25T01:05:52.368Z,6.07
2018-07-25T01:06:55.796Z,5.57
2018-07-25T01:07:59.189Z,5.33
2018-07-25T01:09:02.589Z,6.77
2018-07-25T01:10:06.088Z,5.90
2018-07-25T01:11:09.704Z,5.60
2018-07-25T01:12:13.131Z,6.17
2018-07-25T01:13:16.550Z,5.20
2018-07-25T01:14:19.989Z,5.50
2018-07-25T01:15:23.655Z,6.03
2018-07-25T01:16:27.039Z,5.90
2018-07-25T01:17:30.473Z,5.80
2018-07-25T01:18:33.938Z,6.10
2018-07-25T01:19:37.400Z,5.70
2018-07-25T01:20:40.793Z,5.60
2018-07-25T01:21:44.212Z,5.40
2018-07-25T01:22:47.626Z,5.80
2018-07-25T01:23:51.006Z,5.47
2018-07-25T01:24:54.422Z,5.80
2018-07-25T01:25:57.848Z,5.60
2018-07-25T01:27:01.248Z,5.40
2018-07-25T01:28:04.667Z,5.97
2018-07-25T01:29:08.068Z,5.70
2018-07-25T01:30:11.513Z,5.80
2018-07-25T01:31:14.885Z,5.70
2018-07-25T01:32:18.302Z,5.67
2018-07-25T01:33:21.728Z,6.27
2018-07-25T01:34:25.094Z,5.90
2018-07-25T01:35:28.476Z,5.43
2018-07-25T01:36:31.864Z,5.40
2018-07-25T01:37:35.260Z,5.80
2018-07-25T01:38:38.660Z,5.80
2018-07-25T01:39:42.048Z,5.10
2018-07-25T01:40:45.462Z,5.40
2018-07-25T01:41:48.924Z,6.10
2018-07-25T01:42:52.412Z,5.60
2018-07-25T01:43:55.802Z,5.90
2018-07-25T01:44:59.214Z,5.00
2018-07-25T01:46:02.596Z,5.50
2018-07-25T01:47:06.588Z,5.70
2018-07-25T01:48:10.072Z,5.40
2018-07-25T01:49:13.476Z,5.27
2018-07-25T01:50:16.874Z,5.80
2018-07-25T01:51:20.247Z,5.30
2018-07-25T01:52:23.654Z,5.40
2018-07-25T01:53:27.067Z,5.93
2018-07-25T01:54:30.478Z,5.97
2018-07-25T01:55:33.872Z,5.40
2018-07-25T01:56:37.245Z,5.60
2018-07-25T01:57:40.621Z,5.00
2018-07-25T01:58:43.993Z,4.90
2018-07-25T01:59:47.391Z,5.33
2018-07-25T02:00:50.804Z,5.13
2018-07-25T02:01:54.184Z,5.00
2018-07-25T02:02:57.570Z,5.50
2018-07-25T02:04:00.972Z,5.63
2018-07-25T02:05:04.413Z,5.30
2018-07-25T02:06:07.835Z,5.20
2018-07-25T02:07:11.316Z,5.63
2018-07-25T02:08:14.915Z,5.33
2018-07-25T02:09:18.273Z,5.30
2018-07-25T02:10:21.692Z,5.50
2018-07-25T02:11:25.075Z,5.60
2018-07-25T02:12:28.486Z,5.40
2018-07-25T02:13:31.854Z,5.80
2018-07-25T02:14:35.221Z,5.60
2018-07-25T02:15:38.655Z,5.30
2018-07-25T02:16:42.048Z,5.63
2018-07-25T02:17:45.435Z,5.20
2018-07-25T02:18:48.816Z,5.70
2018-07-25T02:19:52.212Z,5.40
2018-07-25T02:20:55.623Z,5.50
2018-07-25T02:21:59.012Z,5.37
2018-07-25T02:23:02.428Z,5.23
2018-07-25T02:24:05.895Z,5.77
2018-07-25T02:25:09.351Z,5.27
2018-07-25T02:26:12.751Z,5.23
2018-07-25T02:27:16.152Z,5.03
2018-07-25T02:28:19.536Z,5.30
2018-07-25T02:29:22.912Z,5.30
2018-07-25T02:30:26.641Z,5.30
2018-07-25T02:31:30.048Z,5.43
2018-07-25T02:32:33.459Z,5.57
2018-07-25T02:33:42.260Z,5.07
2018-07-25T02:34:45.669Z,4.60
2018-07-25T02:35:49.060Z,5.20
2018-07-25T02:36:53.058Z,5.57
2018-07-25T02:37:56.448Z,5.20
2018-07-25T02:38:59.825Z,5.57
2018-07-25T02:40:03.420Z,5.70
2018-07-25T02:41:06.932Z,5.80
2018-07-25T02:42:10.349Z,5.10
2018-07-25T02:43:13.752Z,5.77
2018-07-25T02:44:17.114Z,5.20
2018-07-25T02:45:20.543Z,5.10
2018-07-25T02:46:23.926Z,4.80
2018-07-25T02:47:27.307Z,5.20
2018-07-25T02:48:30.697Z,5.60
2018-07-25T02:49:34.075Z,5.10
2018-07-25T02:50:37.472Z,5.43
2018-07-25T02:51:40.892Z,5.40
2018-07-25T02:52:44.278Z,5.43
2018-07-25T02:53:47.680Z,5.77
2018-07-25T02:54:51.068Z,5.40
2018-07-25T02:55:54.500Z,4.87
2018-07-25T02:56:57.961Z,5.50
2018-07-25T02:58:01.371Z,5.10
2018-07-25T02:59:05.257Z,4.77
2018-07-25T03:00:08.711Z,5.30
2018-07-25T03:01:12.105Z,5.40
2018-07-25T03:02:15.505Z,4.90
2018-07-25T03:03:18.926Z,5.47
2018-07-25T03:04:22.306Z,5.47
2018-07-25T03:05:25.744Z,5.10
2018-07-25T03:06:29.205Z,5.40
2018-07-25T03:07:32.820Z,6.00
2018-07-25T03:08:36.218Z,5.10
2018-07-25T03:09:39.618Z,5.93
2018-07-25T03:10:47.533Z,5.20
2018-07-25T03:11:50.987Z,5.10
2018-07-25T03:12:54.423Z,5.60
2018-07-25T03:13:57.817Z,5.37
2018-07-25T03:15:01.202Z,4.70
2018-07-25T03:16:08.787Z,5.13
2018-07-25T03:17:12.217Z,5.00
2018-07-25T03:18:15.636Z,5.20
2018-07-25T03:19:19.034Z,4.93
2018-07-25T03:20:22.448Z,5.13
2018-07-25T03:21:25.887Z,5.00
2018-07-25T03:22:29.284Z,5.43
2018-07-25T03:23:35.773Z,5.10
2018-07-25T03:24:39.148Z,4.90
2018-07-25T03:25:42.536Z,5.30
2018-07-25T03:26:45.942Z,4.83
2018-07-25T03:27:49.336Z,5.60
2018-07-25T03:28:52.713Z,4.87
2018-07-25T03:29:56.123Z,5.10
2018-07-25T03:31:00.140Z,5.10
2018-07-25T03:32:03.541Z,5.00
2018-07-25T03:33:07.119Z,5.20
2018-07-25T03:34:10.536Z,4.80
2018-07-25T03:35:13.944Z,5.10
2018-07-25T03:36:17.325Z,5.00
2018-07-25T03:37:20.786Z,5.50
2018-07-25T03:38:24.122Z,5.53
2018-07-25T03:39:27.524Z,5.07
2018-07-25T03:40:30.940Z,4.90
2018-07-25T03:41:34.329Z,5.13
2018-07-25T03:42:37.799Z,5.53
2018-07-25T03:43:41.182Z,5.10
2018-07-25T03:44:44.576Z,5.07
2018-07-25T03:45:47.957Z,4.97
2018-07-25T03:46:51.355Z,4.90
2018-07-25T03:47:54.736Z,4.80
2018-07-25T03:48:58.120Z,5.40
2018-07-25T03:50:01.500Z,5.37
2018-07-25T03:51:04.925Z,5.23
2018-07-25T03:52:08.360Z,4.77
2018-07-25T03:53:11.748Z,5.27
2018-07-25T03:54:15.144Z,4.87
2018-07-25T03:55:18.573Z,4.73
2018-07-25T03:56:21.967Z,5.30
2018-07-25T03:57:25.380Z,6.40
2018-07-25T03:58:28.766Z,7.83
2018-07-25T03:59:32.237Z,7.80
2018-07-25T04:00:35.894Z,7.10
2018-07-25T04:01:39.330Z,8.83
2018-07-25T04:02:42.843Z,8.40
2018-07-25T04:03:46.243Z,9.50
2018-07-25T04:04:49.659Z,8.40
2018-07-25T04:05:53.056Z,7.50
2018-07-25T04:06:56.454Z,8.70
2018-07-25T04:07:59.865Z,8.97
2018-07-25T04:09:03.467Z,8.73
2018-07-25T04:10:08.135Z,9.23
2018-07-25T04:11:11.579Z,9.80
2018-07-25T04:12:14.964Z,8.97
2018-07-25T04:13:19.482Z,8.87
2018-07-25T04:14:22.889Z,8.73
2018-07-25T04:15:26.334Z,8.57
2018-07-25T04:16:29.766Z,9.20
2018-07-25T04:17:38.576Z,9.13
2018-07-25T04:18:41.976Z,9.23
2018-07-25T04:19:45.609Z,8.80
2018-07-25T04:20:49.296Z,9.23
2018-07-25T04:21:52.868Z,9.90
2018-07-25T04:22:56.284Z,9.53
2018-07-25T04:23:59.725Z,10.63
2018-07-25T04:25:03.391Z,9.00
2018-07-25T04:26:06.868Z,9.40
2018-07-25T04:27:10.848Z,9.90
2018-07-25T04:28:14.254Z,9.53
2018-07-25T04:29:17.684Z,10.10
2018-07-25T04:30:21.103Z,10.23
2018-07-25T04:31:25.230Z,9.93
2018-07-25T04:32:28.770Z,10.80
2018-07-25T04:33:32.174Z,9.50
2018-07-25T04:34:35.789Z,9.37
2018-07-25T04:35:39.197Z,10.93
2018-07-25T04:36:42.681Z,10.03
2018-07-25T04:37:46.126Z,10.80
2018-07-25T04:38:49.532Z,9.80
2018-07-25T04:39:53.556Z,10.00
2018-07-25T04:40:56.988Z,9.63
2018-07-25T04:42:00.428Z,10.40
2018-07-25T04:43:04.086Z,10.87
2018-07-25T04:44:07.544Z,10.27
2018-07-25T04:45:11.640Z,9.40
2018-07-25T04:46:15.427Z,9.53
2018-07-25T04:47:18.772Z,10.37
2018-07-25T04:48:22.239Z,9.90
2018-07-25T04:49:25.945Z,10.73
2018-07-25T04:50:29.337Z,10.60
2018-07-25T04:51:32.788Z,10.20
2018-07-25T04:52:36.607Z,9.83
2018-07-25T04:53:40.018Z,10.60
2018-07-25T04:54:43.778Z,9.87
2018-07-25T04:55:47.661Z,9.10
2018-07-25T04:56:51.076Z,10.17
2018-07-25T04:57:54.494Z,9.43
2018-07-25T04:58:57.951Z,10.23
2018-07-25T05:00:01.364Z,9.60
2018-07-25T05:01:04.928Z,9.80
2018-07-25T05:02:08.743Z,9.37
2018-07-25T05:03:12.168Z,10.47
2018-07-25T05:04:15.600Z,10.33
2018-07-25T05:05:19.020Z,10.17
2018-07-25T05:06:22.397Z,10.50
2018-07-25T05:07:26.065Z,11.63
2018-07-25T05:08:29.550Z,10.43
2018-07-25T05:09:33.089Z,9.90
2018-07-25T05:10:37.481Z,10.73
2018-07-25T05:11:40.856Z,11.40
2018-07-25T05:12:44.256Z,10.00
2018-07-25T05:13:47.692Z,11.30
2018-07-25T05:14:51.134Z,10.23
2018-07-25T05:15:54.532Z,10.90
2018-07-25T05:16:57.910Z,11.17
2018-07-25T05:18:01.309Z,11.10
2018-07-25T05:19:04.986Z,11.90
2018-07-25T05:20:08.410Z,11.70
2018-07-25T05:21:11.814Z,10.60
2018-07-25T05:22:15.246Z,11.13
2018-07-25T05:23:18.698Z,10.83
2018-07-25T05:24:22.094Z,11.63
2018-07-25T05:25:25.481Z,11.47
2018-07-25T05:26:28.886Z,11.30
2018-07-25T05:27:32.308Z,11.03
2018-07-25T05:28:35.756Z,11.50
2018-07-25T05:29:39.162Z,12.33
2018-07-25T05:30:42.582Z,11.43
2018-07-25T05:31:47.069Z,11.57
2018-07-25T05:32:50.485Z,12.07
2018-07-25T05:33:53.969Z,11.97
2018-07-25T05:34:57.357Z,11.30
2018-07-25T05:36:00.785Z,11.20
2018-07-25T05:37:04.447Z,12.60
2018-07-25T05:38:08.023Z,11.83
2018-07-25T05:39:13.002Z,12.50
2018-07-25T05:40:16.425Z,11.90
2018-07-25T05:41:19.952Z,11.90
2018-07-25T05:42:23.368Z,12.50
2018-07-25T05:43:26.793Z,12.37
2018-07-25T05:44:30.449Z,12.93
2018-07-25T05:45:33.991Z,12.63
2018-07-25T05:46:37.550Z,13.17
2018-07-25T05:47:40.935Z,12.87
2018-07-25T05:48:44.409Z,13.40
2018-07-25T05:49:47.841Z,13.40
2018-07-25T05:50:51.258Z,12.60
2018-07-25T05:51:54.694Z,13.20
2018-07-25T05:52:58.710Z,13.20
2018-07-25T05:54:02.249Z,11.50
2018-07-25T05:55:05.684Z,11.80
2018-07-25T05:56:09.108Z,12.53
2018-07-25T05:57:12.523Z,12.90
2018-07-25T05:58:15.954Z,13.20
2018-07-25T05:59:19.333Z,14.60
2018-07-25T06:00:22.760Z,12.20
2018-07-25T06:01:26.647Z,12.60
2018-07-25T06:02:30.056Z,13.37
2018-07-25T06:03:33.611Z,13.00
2018-07-25T06:04:36.970Z,12.63
2018-07-25T06:05:40.432Z,12.70
2018-07-25T06:06:43.848Z,13.03
2018-07-25T06:07:47.248Z,12.60
2018-07-25T06:08:50.682Z,12.80
2018-07-25T06:09:54.086Z,12.50
2018-07-25T06:10:57.550Z,12.33
2018-07-25T06:12:01.002Z,12.07
2018-07-25T06:13:04.560Z,11.53
2018-07-25T06:14:08.195Z,12.00
2018-07-25T06:15:11.604Z,12.50
2018-07-25T06:16:14.991Z,11.73
2018-07-25T06:17:18.435Z,13.03
2018-07-25T06:18:21.889Z,12.57
2018-07-25T06:19:25.352Z,11.50
2018-07-25T06:20:28.861Z,12.40
2018-07-25T06:21:32.245Z,12.50
2018-07-25T06:22:35.690Z,12.60
2018-07-25T06:23:39.153Z,12.90
2018-07-25T06:24:42.561Z,12.50
2018-07-25T06:25:46.012Z,11.47
2018-07-25T06:26:49.426Z,11.93
2018-07-25T06:27:53.000Z,11.90
2018-07-25T06:28:56.384Z,12.10
2018-07-25T06:29:59.776Z,12.20
2018-07-25T06:31:03.224Z,12.37
2018-07-25T06:32:06.792Z,12.20
2018-07-25T06:33:10.201Z,13.07
2018-07-25T06:34:14.663Z,12.30
2018-07-25T06:35:18.154Z,12.70
2018-07-25T06:36:21.628Z,12.83
2018-07-25T06:37:25.705Z,12.17
2018-07-25T06:38:29.732Z,10.83
2018-07-25T06:39:33.395Z,12.03
2018-07-25T06:40:37.178Z,11.63
2018-07-25T06:41:40.951Z,11.50
2018-07-25T06:42:44.747Z,12.53
2018-07-25T06:43:48.252Z,12.03
2018-07-25T06:44:52.322Z,12.43
2018-07-25T06:45:55.911Z,12.60
2018-07-25T06:46:59.388Z,11.13
2018-07-25T06:48:02.850Z,13.10
2018-07-25T06:56:53.570Z,12.40
2018-07-25T06:57:57.043Z,13.40
2018-07-25T06:59:04.386Z,13.07
2018-07-25T07:00:08.263Z,13.53
2018-07-25T07:01:11.754Z,15.10
2018-07-25T07:02:15.162Z,14.57
2018-07-25T07:03:18.618Z,14.73
2018-07-25T07:04:22.074Z,13.93
2018-07-25T07:05:25.468Z,14.73
2018-07-25T07:06:28.917Z,14.73
2018-07-25T07:07:32.502Z,14.57
2018-07-25T07:08:35.894Z,12.40
2018-07-25T07:09:39.279Z,12.20
2018-07-25T07:10:42.713Z,12.83
2018-07-25T07:11:46.122Z,12.90
2018-07-25T07:12:49.536Z,11.80
2018-07-25T07:13:53.131Z,12.37
2018-07-25T07:14:56.548Z,11.97
2018-07-25T07:15:59.950Z,12.70
2018-07-25T07:17:03.400Z,13.30
2018-07-25T07:18:06.827Z,12.30
2018-07-25T07:19:10.223Z,12.33
2018-07-25T07:20:13.661Z,11.70
2018-07-25T07:21:17.096Z,12.77
2018-07-25T07:22:20.595Z,12.20
2018-07-25T07:23:23.988Z,11.87
2018-07-25T07:24:27.554Z,11.20
2018-07-25T07:25:30.972Z,11.53
2018-07-25T07:26:34.434Z,11.67
2018-07-25T07:27:37.907Z,10.97
2018-07-25T07:28:41.330Z,11.07
2018-07-25T07:29:44.733Z,10.90
2018-07-25T07:30:48.113Z,10.97
2018-07-25T07:31:51.570Z,10.77
2018-07-25T07:32:54.974Z,10.03
2018-07-25T07:33:58.376Z,11.20
2018-07-25T07:35:01.849Z,10.90
2018-07-25T07:36:05.299Z,10.10
2018-07-25T07:37:08.836Z,10.23
2018-07-25T07:38:12.241Z,10.50
2018-07-25T07:39:15.630Z,10.30
2018-07-25T07:40:19.016Z,9.70
2018-07-25T07:41:22.460Z,9.83
2018-07-25T07:42:25.890Z,10.10
2018-07-25T07:43:29.311Z,10.30
2018-07-25T07:44:32.846Z,9.20
2018-07-25T07:45:36.326Z,11.23
2018-07-25T07:46:39.750Z,9.70
2018-07-25T07:47:43.259Z,9.87
2018-07-25T07:48:46.839Z,10.97
2018-07-25T07:49:51.353Z,9.50
2018-07-25T07:50:54.759Z,10.50
2018-07-25T07:51:58.200Z,9.67
2018-07-25T07:53:01.651Z,10.80
2018-07-25T07:54:05.150Z,10.30
2018-07-25T07:55:08.623Z,10.40
2018-07-25T07:56:12.030Z,11.20
2018-07-25T07:57:15.459Z,9.37
2018-07-25T07:58:18.919Z,10.33
2018-07-25T07:59:22.352Z,10.10
2018-07-25T08:00:25.735Z,10.57
2018-07-25T08:01:29.166Z,10.37
2018-07-25T08:02:32.586Z,10.63
2018-07-25T08:03:35.990Z,10.30
2018-07-25T08:04:39.423Z,10.80
2018-07-25T08:05:42.838Z,10.30
2018-07-25T08:06:46.313Z,10.40
2018-07-25T08:07:49.709Z,10.80
2018-07-25T08:08:53.114Z,10.87
2018-07-25T08:09:56.508Z,10.90
2018-07-25T08:10:59.928Z,10.70
2018-07-25T08:12:03.350Z,10.83
2018-07-25T08:13:06.770Z,10.93
2018-07-25T08:14:10.339Z,11.00
2018-07-25T08:15:13.835Z,11.20
2018-07-25T08:16:17.892Z,10.33
2018-07-25T08:17:21.312Z,10.90
2018-07-25T08:18:24.690Z,9.83
2018-07-25T08:19:28.104Z,10.33
2018-07-25T08:20:31.569Z,10.50
2018-07-25T08:21:34.959Z,9.90
2018-07-25T08:22:38.411Z,10.60
2018-07-25T08:23:42.769Z,10.73
2018-07-25T08:24:46.227Z,10.23
2018-07-25T08:25:50.376Z,10.50
2018-07-25T08:26:54.208Z,10.13
2018-07-25T08:27:57.854Z,10.60
2018-07-25T08:29:01.584Z,9.67
2018-07-25T08:30:05.986Z,9.97
2018-07-25T08:31:09.397Z,9.67
2018-07-25T08:32:15.000Z,9.70
2018-07-25T08:33:19.951Z,10.03
2018-07-25T08:34:24.721Z,9.40
2018-07-25T08:35:29.206Z,9.50
2018-07-25T08:36:33.706Z,9.50
2018-07-25T08:37:38.045Z,9.60
2018-07-25T08:38:43.566Z,9.83
2018-07-25T08:39:48.119Z,9.97
2018-07-25T08:40:51.575Z,9.23
2018-07-25T08:41:55.001Z,9.00
2018-07-25T08:42:58.445Z,9.53
2018-07-25T08:44:01.836Z,10.10
2018-07-25T08:45:06.200Z,8.60
2018-07-25T08:46:10.798Z,10.17
2018-07-25T08:47:14.212Z,8.83
2018-07-25T08:48:17.743Z,9.20
2018-07-25T08:49:21.153Z,9.33
2018-07-25T08:50:24.726Z,9.30
2018-07-25T08:51:28.141Z,9.70
2018-07-25T08:52:31.692Z,9.70
2018-07-25T08:53:35.500Z,9.13
2018-07-25T08:54:39.157Z,9.40
2018-07-25T08:55:43.249Z,10.10
2018-07-25T08:56:46.708Z,8.93
2018-07-25T08:57:50.157Z,9.20
2018-07-25T08:58:53.571Z,9.60
2018-07-25T08:59:57.060Z,9.03
2018-07-25T09:01:01.017Z,9.57
2018-07-25T09:02:05.207Z,9.43
2018-07-25T09:03:08.727Z,9.43
2018-07-25T09:04:12.398Z,9.20
2018-07-25T09:05:15.800Z,9.50
2018-07-25T09:06:19.491Z,9.03
2018-07-25T09:07:22.911Z,9.80
2018-07-25T09:08:26.317Z,8.87
2018-07-25T09:09:29.838Z,9.50
2018-07-25T09:10:33.461Z,8.80
2018-07-25T09:11:36.973Z,9.10
2018-07-25T09:12:40.442Z,8.23
2018-07-25T09:13:43.914Z,8.20
2018-07-25T09:14:47.300Z,9.60
2018-07-25T09:15:50.720Z,8.80
2018-07-25T09:16:54.146Z,8.90
2018-07-25T09:17:57.584Z,9.67
2018-07-25T09:19:01.344Z,9.10
2018-07-25T09:20:05.517Z,9.03
2018-07-25T09:21:09.082Z,8.70
2018-07-25T09:22:12.515Z,10.37
2018-07-25T09:23:15.916Z,11.07
2018-07-25T09:24:19.497Z,10.63
2018-07-25T09:25:22.918Z,11.77
2018-07-25T09:26:26.378Z,11.60
2018-07-25T09:27:29.779Z,11.90
2018-07-25T09:28:33.207Z,11.70
2018-07-25T09:29:36.645Z,12.37
2018-07-25T09:30:43.657Z,12.50
2018-07-25T09:31:47.074Z,12.03
2018-07-25T09:32:51.776Z,11.83
2018-07-25T09:34:06.208Z,12.50
2018-07-25T09:35:09.753Z,12.47
2018-07-25T09:36:13.939Z,12.03
2018-07-25T09:37:17.492Z,10.80
2018-07-25T09:38:21.036Z,12.23
2018-07-25T09:39:24.701Z,12.20
2018-07-25T09:40:28.166Z,11.73
2018-07-25T09:41:31.607Z,12.27
2018-07-25T09:42:35.072Z,12.70
2018-07-25T09:43:38.597Z,12.17
2018-07-25T09:44:42.047Z,12.50
2018-07-25T09:45:45.495Z,11.63
2018-07-25T09:46:48.915Z,12.10
2018-07-25T09:47:52.476Z,11.87
2018-07-25T09:48:55.926Z,11.53
2018-07-25T09:49:59.360Z,12.17
2018-07-25T09:51:02.912Z,11.00
2018-07-25T09:52:06.355Z,11.30
2018-07-25T09:53:09.889Z,11.17
2018-07-25T09:54:13.294Z,11.80
2018-07-25T09:55:16.795Z,12.00
2018-07-25T09:56:20.377Z,10.77
2018-07-25T09:57:24.027Z,13.17
2018-07-25T09:58:27.530Z,12.40
2018-07-25T09:59:30.956Z,12.57
2018-07-25T10:00:49.933Z,13.10
2018-07-25T10:01:53.363Z,12.17
2018-07-25T10:02:57.037Z,11.90
2018-07-25T10:04:00.472Z,12.13
2018-07-25T10:05:04.067Z,12.30
2018-07-25T10:06:07.660Z,10.97
2018-07-25T10:07:11.080Z,12.40
2018-07-25T10:08:15.150Z,13.63
2018-07-25T10:09:18.598Z,12.33
2018-07-25T10:10:22.065Z,13.33
2018-07-25T10:11:25.540Z,12.50
2018-07-25T10:12:29.020Z,12.70
2018-07-25T10:13:32.540Z,12.67
2018-07-25T10:14:36.028Z,13.07
2018-07-25T10:15:39.454Z,13.77
2018-07-25T10:16:42.911Z,15.03
2018-07-25T10:17:46.334Z,15.73
2018-07-25T10:18:49.768Z,14.33
2018-07-25T10:19:53.170Z,14.70
2018-07-25T10:20:56.668Z,14.40
2018-07-25T10:22:00.062Z,14.67
2018-07-25T10:23:03.674Z,14.60
2018-07-25T10:24:07.311Z,15.53
2018-07-25T10:25:10.884Z,14.37
2018-07-25T10:26:14.371Z,14.50
2018-07-25T10:27:17.817Z,14.30
2018-07-25T10:28:21.230Z,14.30
2018-07-25T10:29:24.884Z,13.50
2018-07-25T10:30:28.269Z,13.13
2018-07-25T10:31:31.681Z,13.67
2018-07-25T10:32:35.175Z,13.23
2018-07-25T10:33:38.615Z,14.50
2018-07-25T10:34:41.987Z,12.73
2018-07-25T10:35:46.089Z,13.50
2018-07-25T10:36:49.835Z,14.20
2018-07-25T10:37:53.508Z,13.83
2018-07-25T10:38:56.996Z,14.60
2018-07-25T10:40:00.427Z,14.47
2018-07-25T10:41:03.894Z,14.60
2018-07-25T10:42:07.656Z,13.63
2018-07-25T10:43:11.075Z,13.97
2018-07-25T10:44:14.540Z,13.60
2018-07-25T10:45:17.971Z,13.57
2018-07-25T10:46:21.502Z,14.30
2018-07-25T10:47:24.916Z,13.97
2018-07-25T10:48:28.352Z,14.37
2018-07-25T10:49:31.782Z,13.57
2018-07-25T10:50:35.215Z,12.77
2018-07-25T10:51:38.722Z,13.70
2018-07-25T10:52:42.148Z,13.40
2018-07-25T10:53:45.823Z,13.00
2018-07-25T10:54:49.389Z,13.20
2018-07-25T10:55:52.821Z,13.00
2018-07-25T10:56:56.233Z,12.67
2018-07-25T10:57:59.856Z,12.57
2018-07-25T10:59:03.321Z,12.20
2018-07-25T11:00:07.927Z,13.30
2018-07-25T11:01:11.366Z,12.67
2018-07-25T11:02:14.804Z,12.30
2018-07-25T11:03:18.232Z,12.57
2018-07-25T11:04:21.646Z,12.40
2018-07-25T11:05:25.037Z,11.70
2018-07-25T11:06:28.512Z,11.80
2018-07-25T11:07:32.249Z,12.23
2018-07-25T11:08:36.509Z,12.67
2018-07-25T11:09:39.985Z,11.53
2018-07-25T11:10:43.371Z,13.00
2018-07-25T11:11:46.823Z,11.80
2018-07-25T11:12:50.203Z,11.30
2018-07-25T11:13:53.622Z,13.40
2018-07-25T11:14:57.064Z,11.00
2018-07-25T11:16:00.526Z,12.17
2018-07-25T11:17:04.018Z,11.80
2018-07-25T11:18:07.599Z,11.93
2018-07-25T11:19:11.013Z,10.70
2018-07-25T11:20:14.456Z,11.73
2018-07-25T11:21:17.883Z,12.30
2018-07-25T11:22:21.375Z,11.53
2018-07-25T11:23:24.842Z,11.07
2018-07-25T11:24:28.247Z,12.17
2018-07-25T11:25:31.738Z,11.73
2018-07-25T11:26:35.188Z,10.93
2018-07-25T11:27:38.617Z,11.83
2018-07-25T11:28:42.085Z,11.50
2018-07-25T11:29:45.480Z,11.73
2018-07-25T11:30:50.034Z,11.03
2018-07-25T11:31:53.802Z,11.63
2018-07-25T11:32:57.658Z,10.93
2018-07-25T11:34:01.550Z,11.90
2018-07-25T11:35:06.599Z,11.93
2018-07-25T11:36:10.265Z,10.83
2018-07-25T11:37:13.875Z,11.33
2018-07-25T11:38:17.467Z,10.60
2018-07-25T11:39:20.940Z,11.13
2018-07-25T11:40:24.330Z,12.30
2018-07-25T11:41:28.312Z,11.20
2018-07-25T11:42:31.907Z,12.53
2018-07-25T11:43:35.654Z,10.87
2018-07-25T11:44:39.425Z,12.40
2018-07-25T11:45:42.833Z,11.00
2018-07-25T11:46:46.265Z,11.00
2018-07-25T11:47:49.848Z,12.10
2018-07-25T11:48:53.222Z,11.60
2018-07-25T11:49:56.652Z,11.00
2018-07-25T11:51:00.045Z,10.50
2018-07-25T11:52:03.476Z,11.10
2018-07-25T11:53:06.892Z,10.97
2018-07-25T11:54:10.286Z,11.20
2018-07-25T11:55:13.708Z,11.80
2018-07-25T11:56:17.161Z,11.07
2018-07-25T11:57:20.608Z,10.27
2018-07-25T11:58:24.331Z,10.93
2018-07-25T11:59:27.752Z,11.03
2018-07-25T12:00:31.158Z,10.77
2018-07-25T12:01:34.651Z,10.80
2018-07-25T12:02:38.027Z,10.83
2018-07-25T12:03:41.436Z,11.30
2018-07-25T12:04:44.923Z,10.57
2018-07-25T12:05:48.384Z,10.23
2018-07-25T12:06:51.809Z,10.67
2018-07-25T12:07:55.848Z,10.00
2018-07-25T12:08:59.281Z,11.63
2018-07-25T12:10:02.722Z,10.47
2018-07-25T12:11:07.527Z,10.93
2018-07-25T12:12:10.972Z,10.63
2018-07-25T12:13:14.397Z,11.03
2018-07-25T12:14:18.854Z,10.67
2018-07-25T12:15:22.299Z,10.73
2018-07-25T12:16:25.813Z,10.77
2018-07-25T12:17:29.304Z,10.77
2018-07-25T12:18:32.761Z,10.50
2018-07-25T12:19:36.187Z,11.00
2018-07-25T12:20:39.694Z,11.03
2018-07-25T12:21:43.126Z,11.33
2018-07-25T12:22:46.721Z,10.53
2018-07-25T12:23:50.186Z,11.13
2018-07-25T12:24:53.762Z,10.67
2018-07-25T12:25:57.247Z,11.30
2018-07-25T12:27:00.858Z,10.47
2018-07-25T12:28:04.304Z,10.03
2018-07-25T12:29:07.761Z,10.97
2018-07-25T12:30:11.209Z,11.47
2018-07-25T12:31:14.646Z,10.47
2018-07-25T12:32:18.096Z,10.70
2018-07-25T12:33:21.544Z,11.10
2018-07-25T12:35:28.564Z,12.37
2018-07-25T12:36:34.010Z,10.90
2018-07-25T12:37:37.618Z,11.80
2018-07-25T12:38:41.054Z,13.00
2018-07-25T12:39:44.720Z,13.03
2018-07-25T12:40:48.170Z,12.80
2018-07-25T12:41:51.618Z,13.73
2018-07-25T12:42:55.239Z,13.03
2018-07-25T12:43:58.659Z,15.30
2018-07-25T12:45:02.081Z,14.07
2018-07-25T12:46:05.540Z,15.40
2018-07-25T12:47:09.006Z,13.03
2018-07-25T12:48:12.491Z,14.10
2018-07-25T12:49:15.951Z,13.33
2018-07-25T12:50:19.414Z,13.40
2018-07-25T12:51:22.826Z,13.37
2018-07-25T12:52:26.291Z,12.80
2018-07-25T12:53:30.030Z,14.20
2018-07-25T12:54:33.521Z,15.13
2018-07-25T12:55:37.000Z,13.43
2018-07-25T12:56:40.515Z,14.47
2018-07-25T12:57:43.960Z,14.07
2018-07-25T12:58:47.425Z,13.87
2018-07-25T12:59:50.845Z,14.50
2018-07-25T13:00:54.256Z,13.23
2018-07-25T13:01:57.709Z,13.20
2018-07-25T13:03:01.186Z,13.90
2018-07-25T13:04:04.648Z,13.83
2018-07-25T13:05:08.177Z,12.90
2018-07-25T13:06:11.615Z,13.43
2018-07-25T13:07:15.068Z,14.40
2018-07-25T13:08:18.486Z,14.53
2018-07-25T13:09:21.883Z,13.47
2018-07-25T13:10:25.474Z,13.17
2018-07-25T13:11:29.102Z,13.50
2018-07-25T13:12:32.612Z,14.20
2018-07-25T13:13:36.043Z,14.33
2018-07-25T13:14:39.520Z,13.53
2018-07-25T13:15:43.165Z,13.60
2018-07-25T13:16:46.657Z,13.67
2018-07-25T13:17:50.102Z,13.80
2018-07-25T13:18:53.531Z,12.23
2018-07-25T13:19:57.154Z,13.57
2018-07-25T13:21:00.702Z,15.63
2018-07-25T13:22:04.231Z,14.33
2018-07-25T13:23:08.001Z,13.80
2018-07-25T13:24:11.452Z,14.40
2018-07-25T13:25:16.110Z,14.40
2018-07-25T13:26:19.696Z,14.10
2018-07-25T13:27:23.306Z,13.63
2018-07-25T13:28:26.812Z,14.33
2018-07-25T13:29:30.201Z,14.27
2018-07-25T13:30:33.845Z,13.67
2018-07-25T13:31:37.290Z,14.10
2018-07-25T13:32:40.788Z,13.87
2018-07-25T13:33:44.187Z,13.47
2018-07-25T13:34:47.621Z,14.03
2018-07-25T13:35:51.152Z,13.80
2018-07-25T13:36:54.670Z,13.67
2018-07-25T13:37:58.128Z,13.80
2018-07-25T13:39:01.599Z,13.33
2018-07-25T13:40:05.740Z,13.30
2018-07-25T13:41:09.198Z,14.83
2018-07-25T13:42:12.851Z,13.17
2018-07-25T13:43:16.297Z,12.40
2018-07-25T13:44:19.909Z,13.23
2018-07-25T13:45:23.400Z,11.70
2018-07-25T13:46:26.792Z,11.90
2018-07-25T13:47:30.393Z,11.73
2018-07-25T13:48:34.009Z,10.80
2018-07-25T13:49:37.442Z,12.20
2018-07-25T13:50:41.271Z,12.10
2018-07-25T13:51:44.706Z,11.87
2018-07-25T13:52:48.192Z,12.40
2018-07-25T13:53:51.872Z,11.90
2018-07-25T13:54:55.316Z,11.80
2018-07-25T13:55:59.504Z,11.70
2018-07-25T13:57:03.291Z,11.93
2018-07-25T13:58:07.245Z,12.80
2018-07-25T13:59:10.840Z,11.93